sensor_id;sensor_type;location;lat;lon;timestamp;P1;durP1;ratioP1;P2;durP2;ratioP2
20784;SDS011;10552;45.818;12.896;2022-08-01T00:02:49;5.18;;;4.32;;
20784;SDS011;10552;45.818;12.896;2022-08-01T00:05:33;6.00;;;5.50;;
20784;SDS011;10552;45.818;12.896;2022-08-01T00:08:23;6.00;;;5.20;;
20784;SDS011;10552;45.818;12.896;2022-08-01T00:11:13;5.30;;;4.80;;
20784;SDS011;10552;45.818;12.896;2022-08-01T00:14:06;5.12;;;4.65;;
20784;SDS011;10552;45.818;12.896;2022-08-01T00:16:50;5.82;;;5.32;;
20784;SDS011;10552;45.818;12.896;2022-08-01T00:19:33;5.80;;;5.30;;
20784;SDS011;10552;45.818;12.896;2022-08-01T00:22:30;5.18;;;4.78;;
20784;SDS011;10552;45.818;12.896;2022-08-01T00:25:18;5.90;;;5.40;;
20784;SDS011;10552;45.818;12.896;2022-08-01T00:28:02;6.30;;;5.20;;
20784;SDS011;10552;45.818;12.896;2022-08-01T00:30:46;5.68;;;5.10;;
20784;SDS011;10552;45.818;12.896;2022-08-01T00:33:30;5.85;;;5.35;;
20784;SDS011;10552;45.818;12.896;2022-08-01T00:36:15;6.07;;;5.57;;
20784;SDS011;10552;45.818;12.896;2022-08-01T00:38:59;5.90;;;5.40;;
20784;SDS011;10552;45.818;12.896;2022-08-01T00:41:43;5.87;;;5.28;;
20784;SDS011;10552;45.818;12.896;2022-08-01T00:44:36;5.50;;;4.72;;
20784;SDS011;10552;45.818;12.896;2022-08-01T00:47:20;5.87;;;5.32;;
20784;SDS011;10552;45.818;12.896;2022-08-01T00:50:04;6.00;;;5.20;;
20784;SDS011;10552;45.818;12.896;2022-08-01T00:52:47;5.68;;;5.18;;
20784;SDS011;10552;45.818;12.896;2022-08-01T00:55:39;5.37;;;4.93;;
20784;SDS011;10552;45.818;12.896;2022-08-01T00:58:23;6.05;;;5.45;;
20784;SDS011;10552;45.818;12.896;2022-08-01T01:01:07;6.65;;;6.05;;
20784;SDS011;10552;45.818;12.896;2022-08-01T01:03:51;6.37;;;5.87;;
20784;SDS011;10552;45.818;12.896;2022-08-01T01:06:40;6.47;;;5.87;;
20784;SDS011;10552;45.818;12.896;2022-08-01T01:19:55;6.30;;;5.70;;
20784;SDS011;10552;45.818;12.896;2022-08-01T01:31:25;6.22;;;5.65;;
20784;SDS011;10552;45.818;12.896;2022-08-01T01:34:09;6.10;;;5.60;;
20784;SDS011;10552;45.818;12.896;2022-08-01T01:36:52;6.95;;;6.25;;
20784;SDS011;10552;45.818;12.896;2022-08-01T01:39:36;5.68;;;5.18;;
20784;SDS011;10552;45.818;12.896;2022-08-01T01:42:19;6.70;;;5.93;;
20784;SDS011;10552;45.818;12.896;2022-08-01T01:45:04;8.02;;;5.62;;
20784;SDS011;10552;45.818;12.896;2022-08-01T01:47:48;6.10;;;5.60;;
20784;SDS011;10552;45.818;12.896;2022-08-01T01:50:31;6.57;;;6.05;;
20784;SDS011;10552;45.818;12.896;2022-08-01T01:53:16;6.07;;;5.50;;
20784;SDS011;10552;45.818;12.896;2022-08-01T01:56:00;6.03;;;5.53;;
20784;SDS011;10552;45.818;12.896;2022-08-01T01:58:43;5.90;;;5.43;;
20784;SDS011;10552;45.818;12.896;2022-08-01T02:01:28;6.30;;;5.70;;
20784;SDS011;10552;45.818;12.896;2022-08-01T02:04:11;6.57;;;5.97;;
20784;SDS011;10552;45.818;12.896;2022-08-01T02:06:55;6.43;;;5.82;;
20784;SDS011;10552;45.818;12.896;2022-08-01T02:09:40;6.65;;;6.00;;
20784;SDS011;10552;45.818;12.896;2022-08-01T02:12:22;5.60;;;5.20;;
20784;SDS011;10552;45.818;12.896;2022-08-01T02:15:05;6.22;;;5.70;;
20784;SDS011;10552;45.818;12.896;2022-08-01T02:17:49;6.70;;;6.10;;
20784;SDS011;10552;45.818;12.896;2022-08-01T02:20:32;5.85;;;5.28;;
20784;SDS011;10552;45.818;12.896;2022-08-01T02:23:22;5.62;;;5.10;;
20784;SDS011;10552;45.818;12.896;2022-08-01T02:26:08;5.82;;;5.32;;
20784;SDS011;10552;45.818;12.896;2022-08-01T02:28:54;7.10;;;6.45;;
20784;SDS011;10552;45.818;12.896;2022-08-01T02:31:38;7.53;;;6.82;;
20784;SDS011;10552;45.818;12.896;2022-08-01T02:34:27;7.15;;;6.45;;
20784;SDS011;10552;45.818;12.896;2022-08-01T02:37:12;7.82;;;7.12;;
20784;SDS011;10552;45.818;12.896;2022-08-01T02:39:56;8.98;;;8.18;;
20784;SDS011;10552;45.818;12.896;2022-08-01T02:42:41;7.55;;;6.85;;
20784;SDS011;10552;45.818;12.896;2022-08-01T02:45:24;7.25;;;6.65;;
20784;SDS011;10552;45.818;12.896;2022-08-01T02:48:09;8.32;;;7.53;;
20784;SDS011;10552;45.818;12.896;2022-08-01T02:50:53;7.75;;;7.05;;
20784;SDS011;10552;45.818;12.896;2022-08-01T02:53:37;7.00;;;6.40;;
20784;SDS011;10552;45.818;12.896;2022-08-01T02:56:21;7.57;;;6.87;;
20784;SDS011;10552;45.818;12.896;2022-08-01T02:59:06;7.53;;;6.93;;
20784;SDS011;10552;45.818;12.896;2022-08-01T03:01:56;6.40;;;5.90;;
20784;SDS011;10552;45.818;12.896;2022-08-01T03:04:40;7.47;;;6.65;;
20784;SDS011;10552;45.818;12.896;2022-08-01T03:07:41;7.40;;;6.70;;
20784;SDS011;10552;45.818;12.896;2022-08-01T03:10:26;7.47;;;6.80;;
20784;SDS011;10552;45.818;12.896;2022-08-01T03:13:09;6.80;;;6.10;;
20784;SDS011;10552;45.818;12.896;2022-08-01T03:16:00;7.57;;;6.47;;
20784;SDS011;10552;45.818;12.896;2022-08-01T03:18:44;7.75;;;6.93;;
20784;SDS011;10552;45.818;12.896;2022-08-01T03:21:37;5.65;;;5.18;;
20784;SDS011;10552;45.818;12.896;2022-08-01T03:24:20;6.95;;;6.35;;
20784;SDS011;10552;45.818;12.896;2022-08-01T03:27:13;6.15;;;5.57;;
20784;SDS011;10552;45.818;12.896;2022-08-01T03:30:03;7.20;;;6.50;;
20784;SDS011;10552;45.818;12.896;2022-08-01T03:32:46;7.20;;;6.12;;
20784;SDS011;10552;45.818;12.896;2022-08-01T03:35:33;6.70;;;6.00;;
20784;SDS011;10552;45.818;12.896;2022-08-01T03:38:17;6.75;;;5.93;;
20784;SDS011;10552;45.818;12.896;2022-08-01T03:41:02;6.82;;;5.90;;
20784;SDS011;10552;45.818;12.896;2022-08-01T03:43:46;6.22;;;5.70;;
20784;SDS011;10552;45.818;12.896;2022-08-01T03:46:36;5.95;;;5.45;;
20784;SDS011;10552;45.818;12.896;2022-08-01T03:49:28;5.65;;;5.15;;
20784;SDS011;10552;45.818;12.896;2022-08-01T03:52:09;6.12;;;5.30;;
20784;SDS011;10552;45.818;12.896;2022-08-01T03:54:54;7.15;;;5.53;;
20784;SDS011;10552;45.818;12.896;2022-08-01T03:57:45;4.75;;;4.35;;
20784;SDS011;10552;45.818;12.896;2022-08-01T04:00:29;5.30;;;4.90;;
20784;SDS011;10552;45.818;12.896;2022-08-01T04:03:13;5.12;;;4.70;;
20784;SDS011;10552;45.818;12.896;2022-08-01T04:05:56;5.10;;;4.65;;
20784;SDS011;10552;45.818;12.896;2022-08-01T04:08:40;5.28;;;4.62;;
20784;SDS011;10552;45.818;12.896;2022-08-01T04:11:24;4.82;;;4.32;;
20784;SDS011;10552;45.818;12.896;2022-08-01T04:14:09;4.30;;;4.00;;
20784;SDS011;10552;45.818;12.896;2022-08-01T04:16:53;4.35;;;4.05;;
20784;SDS011;10552;45.818;12.896;2022-08-01T04:19:38;4.97;;;4.57;;
20784;SDS011;10552;45.818;12.896;2022-08-01T04:22:27;4.80;;;4.30;;
20784;SDS011;10552;45.818;12.896;2022-08-01T04:25:13;4.60;;;4.15;;
20784;SDS011;10552;45.818;12.896;2022-08-01T04:27:55;4.62;;;4.22;;
20784;SDS011;10552;45.818;12.896;2022-08-01T04:30:48;3.35;;;3.15;;
20784;SDS011;10552;45.818;12.896;2022-08-01T04:33:32;4.78;;;4.37;;
20784;SDS011;10552;45.818;12.896;2022-08-01T04:36:26;4.45;;;4.07;;
20784;SDS011;10552;45.818;12.896;2022-08-01T04:39:10;4.18;;;3.80;;
20784;SDS011;10552;45.818;12.896;2022-08-01T04:41:53;4.22;;;3.92;;
20784;SDS011;10552;45.818;12.896;2022-08-01T04:44:37;4.22;;;3.85;;
20784;SDS011;10552;45.818;12.896;2022-08-01T04:47:40;3.40;;;3.20;;
20784;SDS011;10552;45.818;12.896;2022-08-01T04:50:23;4.12;;;3.78;;
20784;SDS011;10552;45.818;12.896;2022-08-01T04:53:13;4.50;;;4.20;;
20784;SDS011;10552;45.818;12.896;2022-08-01T04:55:55;5.55;;;3.87;;
20784;SDS011;10552;45.818;12.896;2022-08-01T04:58:40;4.30;;;4.00;;
20784;SDS011;10552;45.818;12.896;2022-08-01T05:01:30;5.95;;;4.12;;
20784;SDS011;10552;45.818;12.896;2022-08-01T05:04:13;4.22;;;3.87;;
20784;SDS011;10552;45.818;12.896;2022-08-01T05:07:03;4.28;;;3.70;;
20784;SDS011;10552;45.818;12.896;2022-08-01T05:09:54;4.50;;;3.60;;
20784;SDS011;10552;45.818;12.896;2022-08-01T05:12:42;4.10;;;3.80;;
20784;SDS011;10552;45.818;12.896;2022-08-01T05:15:46;3.50;;;3.25;;
20784;SDS011;10552;45.818;12.896;2022-08-01T05:18:37;4.10;;;3.80;;
20784;SDS011;10552;45.818;12.896;2022-08-01T05:21:21;4.25;;;3.60;;
20784;SDS011;10552;45.818;12.896;2022-08-01T05:24:11;3.92;;;3.60;;
20784;SDS011;10552;45.818;12.896;2022-08-01T05:27:01;3.92;;;3.62;;
20784;SDS011;10552;45.818;12.896;2022-08-01T05:29:45;3.80;;;3.50;;
20784;SDS011;10552;45.818;12.896;2022-08-01T05:32:34;3.95;;;3.40;;
20784;SDS011;10552;45.818;12.896;2022-08-01T05:35:26;2.87;;;2.67;;
20784;SDS011;10552;45.818;12.896;2022-08-01T05:38:11;3.50;;;3.20;;
20784;SDS011;10552;45.818;12.896;2022-08-01T05:41:05;3.20;;;3.00;;
20784;SDS011;10552;45.818;12.896;2022-08-01T05:43:49;3.50;;;3.20;;
20784;SDS011;10552;45.818;12.896;2022-08-01T05:46:33;3.65;;;3.37;;
20784;SDS011;10552;45.818;12.896;2022-08-01T05:49:26;3.20;;;2.90;;
20784;SDS011;10552;45.818;12.896;2022-08-01T05:52:10;3.30;;;3.10;;
20784;SDS011;10552;45.818;12.896;2022-08-01T05:54:54;3.70;;;3.42;;
20784;SDS011;10552;45.818;12.896;2022-08-01T05:57:38;4.22;;;3.58;;
20784;SDS011;10552;45.818;12.896;2022-08-01T06:00:23;3.72;;;3.33;;
20784;SDS011;10552;45.818;12.896;2022-08-01T06:03:07;4.10;;;3.80;;
20784;SDS011;10552;45.818;12.896;2022-08-01T06:06:06;3.35;;;3.00;;
20784;SDS011;10552;45.818;12.896;2022-08-01T06:08:58;3.90;;;2.83;;
20784;SDS011;10552;45.818;12.896;2022-08-01T06:11:59;9.15;;;3.30;;
20784;SDS011;10552;45.818;12.896;2022-08-01T06:14:43;4.37;;;3.97;;
20784;SDS011;10552;45.818;12.896;2022-08-01T06:17:27;3.70;;;3.40;;
20784;SDS011;10552;45.818;12.896;2022-08-01T06:20:18;2.97;;;2.78;;
20784;SDS011;10552;45.818;12.896;2022-08-01T06:23:09;3.60;;;3.30;;
20784;SDS011;10552;45.818;12.896;2022-08-01T06:25:52;3.80;;;3.50;;
20784;SDS011;10552;45.818;12.896;2022-08-01T06:28:36;3.45;;;3.20;;
20784;SDS011;10552;45.818;12.896;2022-08-01T06:31:19;3.90;;;3.50;;
20784;SDS011;10552;45.818;12.896;2022-08-01T06:34:03;3.60;;;3.30;;
20784;SDS011;10552;45.818;12.896;2022-08-01T06:36:47;3.40;;;3.10;;
20784;SDS011;10552;45.818;12.896;2022-08-01T06:39:32;3.12;;;2.92;;
20784;SDS011;10552;45.818;12.896;2022-08-01T06:42:18;2.75;;;2.65;;
20784;SDS011;10552;45.818;12.896;2022-08-01T06:45:09;5.35;;;2.95;;
20784;SDS011;10552;45.818;12.896;2022-08-01T06:47:52;3.10;;;2.80;;
20784;SDS011;10552;45.818;12.896;2022-08-01T06:50:36;3.00;;;2.80;;
20784;SDS011;10552;45.818;12.896;2022-08-01T06:53:20;2.97;;;2.78;;
20784;SDS011;10552;45.818;12.896;2022-08-01T06:56:06;3.37;;;3.10;;
20784;SDS011;10552;45.818;12.896;2022-08-01T06:58:50;2.80;;;2.70;;
20784;SDS011;10552;45.818;12.896;2022-08-01T07:01:34;2.80;;;2.60;;
20784;SDS011;10552;45.818;12.896;2022-08-01T07:04:17;3.72;;;2.95;;
20784;SDS011;10552;45.818;12.896;2022-08-01T07:07:01;3.62;;;2.62;;
20784;SDS011;10552;45.818;12.896;2022-08-01T07:09:44;2.85;;;2.65;;
20784;SDS011;10552;45.818;12.896;2022-08-01T07:12:28;3.00;;;2.80;;
20784;SDS011;10552;45.818;12.896;2022-08-01T07:15:18;2.90;;;2.70;;
20784;SDS011;10552;45.818;12.896;2022-08-01T07:18:02;2.58;;;2.47;;
20784;SDS011;10552;45.818;12.896;2022-08-01T07:20:48;3.10;;;2.80;;
20784;SDS011;10552;45.818;12.896;2022-08-01T07:23:33;2.70;;;2.53;;
20784;SDS011;10552;45.818;12.896;2022-08-01T07:26:16;2.75;;;2.65;;
20784;SDS011;10552;45.818;12.896;2022-08-01T07:29:00;2.95;;;2.75;;
20784;SDS011;10552;45.818;12.896;2022-08-01T07:31:50;2.60;;;2.40;;
20784;SDS011;10552;45.818;12.896;2022-08-01T07:34:39;2.92;;;2.55;;
20784;SDS011;10552;45.818;12.896;2022-08-01T07:37:22;2.80;;;2.60;;
20784;SDS011;10552;45.818;12.896;2022-08-01T07:40:06;3.08;;;2.80;;
20784;SDS011;10552;45.818;12.896;2022-08-01T07:42:52;2.92;;;2.60;;
20784;SDS011;10552;45.818;12.896;2022-08-01T07:45:45;3.00;;;2.70;;
20784;SDS011;10552;45.818;12.896;2022-08-01T07:48:38;4.90;;;2.42;;
20784;SDS011;10552;45.818;12.896;2022-08-01T07:51:42;3.33;;;2.58;;
20784;SDS011;10552;45.818;12.896;2022-08-01T07:54:34;2.72;;;2.53;;
20784;SDS011;10552;45.818;12.896;2022-08-01T07:57:17;3.83;;;2.80;;
20784;SDS011;10552;45.818;12.896;2022-08-01T08:00:11;2.37;;;2.28;;
20784;SDS011;10552;45.818;12.896;2022-08-01T08:02:54;2.80;;;2.50;;
20784;SDS011;10552;45.818;12.896;2022-08-01T08:05:55;2.78;;;2.58;;
20784;SDS011;10552;45.818;12.896;2022-08-01T08:08:39;2.80;;;2.60;;
20784;SDS011;10552;45.818;12.896;2022-08-01T08:11:23;2.70;;;2.50;;
20784;SDS011;10552;45.818;12.896;2022-08-01T08:14:51;2.90;;;2.25;;
20784;SDS011;10552;45.818;12.896;2022-08-01T08:17:36;2.62;;;2.42;;
20784;SDS011;10552;45.818;12.896;2022-08-01T08:20:20;2.40;;;2.20;;
20784;SDS011;10552;45.818;12.896;2022-08-01T08:23:21;2.45;;;2.10;;
20784;SDS011;10552;45.818;12.896;2022-08-01T08:26:17;2.08;;;1.98;;
20784;SDS011;10552;45.818;12.896;2022-08-01T08:29:09;2.15;;;2.05;;
20784;SDS011;10552;45.818;12.896;2022-08-01T08:31:53;2.40;;;2.20;;
20784;SDS011;10552;45.818;12.896;2022-08-01T08:34:38;2.45;;;2.35;;
20784;SDS011;10552;45.818;12.896;2022-08-01T08:37:31;1.83;;;1.73;;
20784;SDS011;10552;45.818;12.896;2022-08-01T08:40:17;2.60;;;2.12;;
20784;SDS011;10552;45.818;12.896;2022-08-01T08:43:10;1.90;;;1.80;;
20784;SDS011;10552;45.818;12.896;2022-08-01T08:45:54;2.30;;;2.10;;
20784;SDS011;10552;45.818;12.896;2022-08-01T08:48:39;2.20;;;2.10;;
20784;SDS011;10552;45.818;12.896;2022-08-01T08:51:23;2.30;;;2.10;;
20784;SDS011;10552;45.818;12.896;2022-08-01T08:54:08;2.17;;;2.05;;
20784;SDS011;10552;45.818;12.896;2022-08-01T08:56:52;2.20;;;2.10;;
20784;SDS011;10552;45.818;12.896;2022-08-01T08:59:36;2.00;;;1.90;;
20784;SDS011;10552;45.818;12.896;2022-08-01T09:02:19;2.00;;;1.90;;
20784;SDS011;10552;45.818;12.896;2022-08-01T09:05:02;2.00;;;1.90;;
20784;SDS011;10552;45.818;12.896;2022-08-01T09:07:53;2.40;;;2.20;;
20784;SDS011;10552;45.818;12.896;2022-08-01T09:10:44;2.03;;;1.92;;
20784;SDS011;10552;45.818;12.896;2022-08-01T09:13:28;2.03;;;1.92;;
20784;SDS011;10552;45.818;12.896;2022-08-01T09:16:15;5.57;;;2.08;;
20784;SDS011;10552;45.818;12.896;2022-08-01T09:19:06;2.30;;;2.20;;
20784;SDS011;10552;45.818;12.896;2022-08-01T09:21:56;1.90;;;1.80;;
20784;SDS011;10552;45.818;12.896;2022-08-01T09:27:34;2.17;;;2.05;;
20784;SDS011;10552;45.818;12.896;2022-08-01T09:30:18;2.20;;;2.10;;
20784;SDS011;10552;45.818;12.896;2022-08-01T09:33:04;2.40;;;2.20;;
20784;SDS011;10552;45.818;12.896;2022-08-01T09:35:55;2.05;;;1.90;;
20784;SDS011;10552;45.818;12.896;2022-08-01T09:38:39;1.70;;;1.60;;
20784;SDS011;10552;45.818;12.896;2022-08-01T09:41:29;1.80;;;1.70;;
20784;SDS011;10552;45.818;12.896;2022-08-01T09:44:18;1.90;;;1.80;;
20784;SDS011;10552;45.818;12.896;2022-08-01T09:47:02;1.80;;;1.70;;
20784;SDS011;10552;45.818;12.896;2022-08-01T09:50:00;1.87;;;1.77;;
20784;SDS011;10552;45.818;12.896;2022-08-01T09:52:53;1.70;;;1.70;;
20784;SDS011;10552;45.818;12.896;2022-08-01T09:55:41;1.90;;;1.80;;
20784;SDS011;10552;45.818;12.896;2022-08-01T09:58:24;1.80;;;1.70;;
20784;SDS011;10552;45.818;12.896;2022-08-01T10:01:08;1.70;;;1.60;;
20784;SDS011;10552;45.818;12.896;2022-08-01T10:06:45;2.00;;;1.80;;
20784;SDS011;10552;45.818;12.896;2022-08-01T10:09:29;1.73;;;1.60;;
20784;SDS011;10552;45.818;12.896;2022-08-01T10:12:14;1.60;;;1.60;;
20784;SDS011;10552;45.818;12.896;2022-08-01T10:14:56;1.70;;;1.60;;
20784;SDS011;10552;45.818;12.896;2022-08-01T10:17:46;1.90;;;1.60;;
20784;SDS011;10552;45.818;12.896;2022-08-01T10:20:31;1.80;;;1.70;;
20784;SDS011;10552;45.818;12.896;2022-08-01T10:23:14;1.75;;;1.65;;
20784;SDS011;10552;45.818;12.896;2022-08-01T10:26:07;1.50;;;1.45;;
20784;SDS011;10552;45.818;12.896;2022-08-01T10:28:54;1.70;;;1.60;;
20784;SDS011;10552;45.818;12.896;2022-08-01T10:31:38;1.80;;;1.70;;
20784;SDS011;10552;45.818;12.896;2022-08-01T10:34:27;1.40;;;1.40;;
20784;SDS011;10552;45.818;12.896;2022-08-01T10:37:12;1.70;;;1.60;;
20784;SDS011;10552;45.818;12.896;2022-08-01T10:39:55;1.87;;;1.77;;
20784;SDS011;10552;45.818;12.896;2022-08-01T10:42:47;1.90;;;1.80;;
20784;SDS011;10552;45.818;12.896;2022-08-01T10:45:32;2.75;;;1.70;;
20784;SDS011;10552;45.818;12.896;2022-08-01T10:48:29;1.90;;;1.80;;
20784;SDS011;10552;45.818;12.896;2022-08-01T10:51:17;2.30;;;1.70;;
20784;SDS011;10552;45.818;12.896;2022-08-01T10:54:08;3.00;;;1.60;;
20784;SDS011;10552;45.818;12.896;2022-08-01T10:56:54;2.00;;;1.60;;
20784;SDS011;10552;45.818;12.896;2022-08-01T10:59:48;1.80;;;1.70;;
20784;SDS011;10552;45.818;12.896;2022-08-01T11:02:31;2.12;;;1.90;;
20784;SDS011;10552;45.818;12.896;2022-08-01T11:05:21;2.03;;;1.92;;
20784;SDS011;10552;45.818;12.896;2022-08-01T11:08:08;1.80;;;1.70;;
20784;SDS011;10552;45.818;12.896;2022-08-01T11:10:49;2.12;;;1.80;;
20784;SDS011;10552;45.818;12.896;2022-08-01T11:16:25;2.10;;;2.00;;
20784;SDS011;10552;45.818;12.896;2022-08-01T11:19:10;2.00;;;1.90;;
20784;SDS011;10552;45.818;12.896;2022-08-01T11:21:57;1.92;;;1.80;;
20784;SDS011;10552;45.818;12.896;2022-08-01T11:27:46;2.28;;;1.90;;
20784;SDS011;10552;45.818;12.896;2022-08-01T11:30:30;1.90;;;1.80;;
20784;SDS011;10552;45.818;12.896;2022-08-01T11:33:14;1.95;;;1.85;;
20784;SDS011;10552;45.818;12.896;2022-08-01T11:39:12;2.00;;;1.90;;
20784;SDS011;10552;45.818;12.896;2022-08-01T11:41:58;2.50;;;1.80;;
20784;SDS011;10552;45.818;12.896;2022-08-01T11:44:48;2.12;;;1.80;;
20784;SDS011;10552;45.818;12.896;2022-08-01T11:50:32;1.70;;;1.60;;
20784;SDS011;10552;45.818;12.896;2022-08-01T11:53:15;1.60;;;1.60;;
20784;SDS011;10552;45.818;12.896;2022-08-01T11:55:58;3.05;;;1.65;;
20784;SDS011;10552;45.818;12.896;2022-08-01T11:58:49;1.70;;;1.60;;
20784;SDS011;10552;45.818;12.896;2022-08-01T12:01:33;1.50;;;1.50;;
20784;SDS011;10552;45.818;12.896;2022-08-01T12:04:18;1.80;;;1.70;;
20784;SDS011;10552;45.818;12.896;2022-08-01T12:09:57;1.80;;;1.70;;
20784;SDS011;10552;45.818;12.896;2022-08-01T12:12:43;1.70;;;1.70;;
20784;SDS011;10552;45.818;12.896;2022-08-01T12:15:29;1.85;;;1.75;;
20784;SDS011;10552;45.818;12.896;2022-08-01T12:18:10;1.58;;;1.58;;
20784;SDS011;10552;45.818;12.896;2022-08-01T12:20:59;1.50;;;1.40;;
20784;SDS011;10552;45.818;12.896;2022-08-01T12:23:40;1.70;;;1.55;;
20784;SDS011;10552;45.818;12.896;2022-08-01T12:32:04;1.52;;;1.50;;
20784;SDS011;10552;45.818;12.896;2022-08-01T12:34:48;1.52;;;1.48;;
20784;SDS011;10552;45.818;12.896;2022-08-01T12:37:37;2.00;;;1.60;;
20784;SDS011;10552;45.818;12.896;2022-08-01T12:40:22;1.50;;;1.50;;
20784;SDS011;10552;45.818;12.896;2022-08-01T12:43:06;2.50;;;1.50;;
20784;SDS011;10552;45.818;12.896;2022-08-01T12:45:50;1.52;;;1.50;;
20784;SDS011;10552;45.818;12.896;2022-08-01T12:48:34;1.52;;;1.50;;
20784;SDS011;10552;45.818;12.896;2022-08-01T12:51:25;1.20;;;1.20;;
20784;SDS011;10552;45.818;12.896;2022-08-01T12:54:08;1.40;;;1.40;;
20784;SDS011;10552;45.818;12.896;2022-08-01T12:56:52;1.70;;;1.60;;
20784;SDS011;10552;45.818;12.896;2022-08-01T12:59:36;1.52;;;1.42;;
20784;SDS011;10552;45.818;12.896;2022-08-01T13:02:20;1.45;;;1.45;;
20784;SDS011;10552;45.818;12.896;2022-08-01T13:05:14;1.10;;;1.10;;
20784;SDS011;10552;45.818;12.896;2022-08-01T13:07:57;3.00;;;1.50;;
20784;SDS011;10552;45.818;12.896;2022-08-01T13:10:41;1.35;;;1.35;;
20784;SDS011;10552;45.818;12.896;2022-08-01T13:24:02;1.33;;;1.33;;
20784;SDS011;10552;45.818;12.896;2022-08-01T13:26:46;1.33;;;1.33;;
20784;SDS011;10552;45.818;12.896;2022-08-01T13:29:32;1.40;;;1.40;;
20784;SDS011;10552;45.818;12.896;2022-08-01T13:32:16;1.40;;;1.30;;
20784;SDS011;10552;45.818;12.896;2022-08-01T13:35:04;1.50;;;1.40;;
20784;SDS011;10552;45.818;12.896;2022-08-01T13:37:54;1.50;;;1.30;;
20784;SDS011;10552;45.818;12.896;2022-08-01T13:40:44;1.20;;;1.20;;
20784;SDS011;10552;45.818;12.896;2022-08-01T13:43:36;1.40;;;1.40;;
20784;SDS011;10552;45.818;12.896;2022-08-01T13:46:27;1.37;;;1.37;;
20784;SDS011;10552;45.818;12.896;2022-08-01T13:49:11;1.60;;;1.40;;
20784;SDS011;10552;45.818;12.896;2022-08-01T13:51:54;1.37;;;1.27;;
20784;SDS011;10552;45.818;12.896;2022-08-01T13:54:39;1.50;;;1.40;;
20784;SDS011;10552;45.818;12.896;2022-08-01T13:57:23;1.80;;;1.48;;
20784;SDS011;10552;45.818;12.896;2022-08-01T14:00:06;1.50;;;1.40;;
20784;SDS011;10552;45.818;12.896;2022-08-01T14:02:51;1.50;;;1.40;;
20784;SDS011;10552;45.818;12.896;2022-08-01T14:05:36;1.45;;;1.45;;
20784;SDS011;10552;45.818;12.896;2022-08-01T14:08:26;1.33;;;1.33;;
20784;SDS011;10552;45.818;12.896;2022-08-01T14:11:13;1.40;;;1.40;;
20784;SDS011;10552;45.818;12.896;2022-08-01T14:13:59;1.40;;;1.37;;
20784;SDS011;10552;45.818;12.896;2022-08-01T14:16:44;1.55;;;1.45;;
20784;SDS011;10552;45.818;12.896;2022-08-01T14:19:30;1.58;;;1.48;;
20784;SDS011;10552;45.818;12.896;2022-08-01T14:22:15;1.77;;;1.60;;
20784;SDS011;10552;45.818;12.896;2022-08-01T14:25:07;1.90;;;1.50;;
20784;SDS011;10552;45.818;12.896;2022-08-01T14:27:53;1.58;;;1.50;;
20784;SDS011;10552;45.818;12.896;2022-08-01T14:30:39;1.50;;;1.40;;
20784;SDS011;10552;45.818;12.896;2022-08-01T14:33:25;1.30;;;1.30;;
20784;SDS011;10552;45.818;12.896;2022-08-01T14:36:08;1.27;;;1.20;;
20784;SDS011;10552;45.818;12.896;2022-08-01T14:38:57;1.50;;;1.40;;
20784;SDS011;10552;45.818;12.896;2022-08-01T14:41:42;1.40;;;1.40;;
20784;SDS011;10552;45.818;12.896;2022-08-01T14:44:26;1.48;;;1.37;;
20784;SDS011;10552;45.818;12.896;2022-08-01T14:47:09;1.60;;;1.45;;
20784;SDS011;10552;45.818;12.896;2022-08-01T14:49:59;1.40;;;1.30;;
20784;SDS011;10552;45.818;12.896;2022-08-01T14:52:43;1.50;;;1.40;;
20784;SDS011;10552;45.818;12.896;2022-08-01T14:55:33;2.17;;;1.37;;
20784;SDS011;10552;45.818;12.896;2022-08-01T14:58:15;1.60;;;1.50;;
20784;SDS011;10552;45.818;12.896;2022-08-01T15:01:06;2.17;;;1.48;;
20784;SDS011;10552;45.818;12.896;2022-08-01T15:03:50;1.55;;;1.45;;
20784;SDS011;10552;45.818;12.896;2022-08-01T15:06:33;1.45;;;1.35;;
20784;SDS011;10552;45.818;12.896;2022-08-01T15:09:23;1.50;;;1.40;;
20784;SDS011;10552;45.818;12.896;2022-08-01T15:12:07;1.58;;;1.48;;
20784;SDS011;10552;45.818;12.896;2022-08-01T15:14:51;3.35;;;1.40;;
20784;SDS011;10552;45.818;12.896;2022-08-01T15:17:36;1.77;;;1.40;;
20784;SDS011;10552;45.818;12.896;2022-08-01T15:20:20;1.33;;;1.30;;
20784;SDS011;10552;45.818;12.896;2022-08-01T15:23:04;1.27;;;1.27;;
20784;SDS011;10552;45.818;12.896;2022-08-01T15:25:48;1.60;;;1.40;;
20784;SDS011;10552;45.818;12.896;2022-08-01T15:28:37;1.58;;;1.48;;
20784;SDS011;10552;45.818;12.896;2022-08-01T15:31:24;1.98;;;1.37;;
20784;SDS011;10552;45.818;12.896;2022-08-01T15:34:08;1.30;;;1.30;;
20784;SDS011;10552;45.818;12.896;2022-08-01T15:36:52;1.30;;;1.30;;
20784;SDS011;10552;45.818;12.896;2022-08-01T15:39:36;1.98;;;1.30;;
20784;SDS011;10552;45.818;12.896;2022-08-01T15:42:21;1.60;;;1.50;;
20784;SDS011;10552;45.818;12.896;2022-08-01T15:45:04;1.42;;;1.30;;
20784;SDS011;10552;45.818;12.896;2022-08-01T15:47:49;1.30;;;1.30;;
20784;SDS011;10552;45.818;12.896;2022-08-01T15:50:33;1.50;;;1.40;;
20784;SDS011;10552;45.818;12.896;2022-08-01T15:53:16;1.52;;;1.42;;
20784;SDS011;10552;45.818;12.896;2022-08-01T15:56:00;1.67;;;1.30;;
20784;SDS011;10552;45.818;12.896;2022-08-01T15:58:43;1.20;;;1.20;;
20784;SDS011;10552;45.818;12.896;2022-08-01T16:01:27;1.48;;;1.37;;
20784;SDS011;10552;45.818;12.896;2022-08-01T16:04:12;1.33;;;1.33;;
20784;SDS011;10552;45.818;12.896;2022-08-01T16:06:55;1.50;;;1.40;;
20784;SDS011;10552;45.818;12.896;2022-08-01T16:09:38;2.08;;;1.80;;
20784;SDS011;10552;45.818;12.896;2022-08-01T16:12:22;1.37;;;1.30;;
20784;SDS011;10552;45.818;12.896;2022-08-01T16:15:08;1.60;;;1.50;;
20784;SDS011;10552;45.818;12.896;2022-08-01T16:17:51;1.37;;;1.30;;
20784;SDS011;10552;45.818;12.896;2022-08-01T16:20:41;1.50;;;1.37;;
20784;SDS011;10552;45.818;12.896;2022-08-01T16:23:25;1.30;;;1.30;;
20784;SDS011;10552;45.818;12.896;2022-08-01T16:26:09;1.12;;;1.12;;
20784;SDS011;10552;45.818;12.896;2022-08-01T16:28:53;1.10;;;1.10;;
20784;SDS011;10552;45.818;12.896;2022-08-01T16:31:36;1.20;;;1.20;;
20784;SDS011;10552;45.818;12.896;2022-08-01T16:34:19;1.20;;;1.20;;
20784;SDS011;10552;45.818;12.896;2022-08-01T16:37:02;1.20;;;1.20;;
20784;SDS011;10552;45.818;12.896;2022-08-01T16:39:53;1.05;;;1.05;;
20784;SDS011;10552;45.818;12.896;2022-08-01T16:42:36;1.50;;;1.40;;
20784;SDS011;10552;45.818;12.896;2022-08-01T16:45:20;1.15;;;1.15;;
20784;SDS011;10552;45.818;12.896;2022-08-01T16:48:10;1.30;;;1.30;;
20784;SDS011;10552;45.818;12.896;2022-08-01T16:50:54;1.30;;;1.20;;
20784;SDS011;10552;45.818;12.896;2022-08-01T16:53:37;1.30;;;1.20;;
20784;SDS011;10552;45.818;12.896;2022-08-01T16:56:21;1.30;;;1.30;;
20784;SDS011;10552;45.818;12.896;2022-08-01T16:59:11;1.30;;;1.30;;
20784;SDS011;10552;45.818;12.896;2022-08-01T17:01:55;1.60;;;1.40;;
20784;SDS011;10552;45.818;12.896;2022-08-01T17:04:38;1.20;;;1.20;;
20784;SDS011;10552;45.818;12.896;2022-08-01T17:07:22;1.27;;;1.20;;
20784;SDS011;10552;45.818;12.896;2022-08-01T17:10:12;1.17;;;1.17;;
20784;SDS011;10552;45.818;12.896;2022-08-01T17:12:56;1.10;;;1.10;;
20784;SDS011;10552;45.818;12.896;2022-08-01T17:15:39;1.23;;;1.17;;
20784;SDS011;10552;45.818;12.896;2022-08-01T17:18:23;1.30;;;1.30;;
20784;SDS011;10552;45.818;12.896;2022-08-01T17:21:07;1.50;;;1.40;;
20784;SDS011;10552;45.818;12.896;2022-08-01T17:26:39;1.85;;;1.20;;